CGBFR CYQS-CYXU
Flight info
| Callsign | CGBFR |
|---|---|
| Flight time | 0h 5m |
| Altitude | 3000 |
| Route | DCT |
| Aircraft | BE58/L-VGD/C |
Departure
| Time | 2026-04-29 00:34 |
|---|---|
| Airport | St Thomas Municipal Airport (CYQS) |
Arrival
| Time | 2026-04-29 00:39 |
|---|---|
| Airport | London International Airport (CYXU) |
| Time | Latitude | Longitude | Altitude | Speed | Heading |
|---|---|---|---|---|---|
| 2026-04-29 00:23 | 42.77509 | -81.10478 | 773 ft | 0 kts | 172° |
| 2026-04-29 00:28 | 42.77503 | -81.10480 | 775 ft | 3 kts | 214° |
| 2026-04-29 00:28 | 42.77502 | -81.10520 | 775 ft | 4 kts | 279° |
| 2026-04-29 00:28 | 42.77508 | -81.10562 | 774 ft | 5 kts | 282° |
| 2026-04-29 00:28 | 42.77515 | -81.10618 | 774 ft | 7 kts | 275° |
| 2026-04-29 00:29 | 42.77514 | -81.10673 | 772 ft | 4 kts | 266° |
| 2026-04-29 00:29 | 42.77513 | -81.10705 | 774 ft | 2 kts | 266° |
| 2026-04-29 00:29 | 42.77513 | -81.10710 | 774 ft | 0 kts | 266° |
| 2026-04-29 00:31 | 42.77510 | -81.10742 | 776 ft | 8 kts | 263° |
| 2026-04-29 00:31 | 42.77504 | -81.10821 | 774 ft | 7 kts | 257° |
| 2026-04-29 00:32 | 42.77451 | -81.10886 | 774 ft | 17 kts | 216° |
| 2026-04-29 00:32 | 42.77362 | -81.10963 | 775 ft | 13 kts | 215° |
| 2026-04-29 00:32 | 42.77312 | -81.11001 | 776 ft | 6 kts | 161° |
| 2026-04-29 00:32 | 42.77310 | -81.10830 | 775 ft | 52 kts | 85° |
| 2026-04-29 00:33 | 42.77374 | -81.10033 | 805 ft | 106 kts | 82° |
| 2026-04-29 00:33 | 42.77465 | -81.08999 | 1031 ft | 117 kts | 91° |
| 2026-04-29 00:33 | 42.77488 | -81.07792 | 1160 ft | 133 kts | 89° |
| 2026-04-29 00:33 | 42.77576 | -81.06497 | 1281 ft | 148 kts | 67° |
| 2026-04-29 00:34 | 42.78291 | -81.05635 | 1516 ft | 136 kts | 5° |
| 2026-04-29 00:34 | 42.79174 | -81.05766 | 1804 ft | 126 kts | 336° |
| 2026-04-29 00:34 | 42.80013 | -81.06178 | 1993 ft | 135 kts | 336° |
| 2026-04-29 00:34 | 42.80895 | -81.05868 | 1962 ft | 162 kts | 61° |
| 2026-04-29 00:35 | 42.81687 | -81.05096 | 2103 ft | 143 kts | 336° |
| 2026-04-29 00:35 | 42.82229 | -81.06113 | 2180 ft | 138 kts | 281° |
| 2026-04-29 00:35 | 42.82434 | -81.07349 | 2487 ft | 131 kts | 290° |
| 2026-04-29 00:35 | 42.82929 | -81.08418 | 2643 ft | 135 kts | 300° |
| 2026-04-29 00:36 | 42.83443 | -81.09517 | 2810 ft | 139 kts | 301° |
| 2026-04-29 00:36 | 42.83987 | -81.10612 | 2987 ft | 139 kts | 300° |
| 2026-04-29 00:36 | 42.84504 | -81.11774 | 3009 ft | 149 kts | 300° |
| 2026-04-29 00:36 | 42.85123 | -81.12953 | 3007 ft | 156 kts | 305° |
| 2026-04-29 00:37 | 42.85813 | -81.14111 | 3004 ft | 159 kts | 307° |
| 2026-04-29 00:37 | 42.86522 | -81.15258 | 3004 ft | 161 kts | 308° |
| 2026-04-29 00:37 | 42.87258 | -81.16449 | 3006 ft | 163 kts | 308° |
| 2026-04-29 00:37 | 42.87850 | -81.17570 | 2965 ft | 125 kts | 298° |
| 2026-04-29 00:38 | 42.88243 | -81.18448 | 2836 ft | 96 kts | 299° |
| 2026-04-29 00:38 | 42.88587 | -81.19226 | 2453 ft | 96 kts | 298° |
| 2026-04-29 00:38 | 42.88909 | -81.19975 | 2082 ft | 96 kts | 298° |
| 2026-04-29 00:38 | 42.89258 | -81.20801 | 1573 ft | 103 kts | 296° |
| 2026-04-29 00:39 | 42.89547 | -81.21708 | 1111 ft | 103 kts | 289° |
| 2026-04-29 00:39 | 42.89666 | -81.22572 | 877 ft | 74 kts | 287° |
| 2026-04-29 00:39 | 42.89721 | -81.22815 | 877 ft | 0 kts | 285° |
| 2026-04-29 00:42 | 42.89822 | -81.24002 | 1404 ft | 126 kts | 278° |
| 2026-04-29 00:43 | 42.89877 | -81.25078 | 1592 ft | 107 kts | 275° |
| 2026-04-29 00:43 | 42.89882 | -81.26093 | 1552 ft | 107 kts | 269° |
| 2026-04-29 00:43 | 42.89834 | -81.27114 | 1515 ft | 109 kts | 266° |
| 2026-04-29 00:43 | 42.89729 | -81.28155 | 1430 ft | 109 kts | 268° |
| 2026-04-29 00:44 | 42.89700 | -81.29109 | 1466 ft | 93 kts | 275° |
| 2026-04-29 00:44 | 42.89755 | -81.29979 | 1472 ft | 95 kts | 277° |
| 2026-04-29 00:44 | 42.89807 | -81.30945 | 1558 ft | 108 kts | 275° |
| 2026-04-29 00:44 | 42.89885 | -81.31972 | 1729 ft | 111 kts | 277° |
| 2026-04-29 00:45 | 42.89968 | -81.33032 | 1857 ft | 113 kts | 275° |
| 2026-04-29 00:45 | 42.90040 | -81.34099 | 1985 ft | 116 kts | 275° |
| 2026-04-29 00:45 | 42.90114 | -81.35206 | 2115 ft | 117 kts | 276° |
| 2026-04-29 00:45 | 42.90205 | -81.36304 | 2305 ft | 114 kts | 279° |
| 2026-04-29 00:46 | 42.90331 | -81.37343 | 2483 ft | 111 kts | 279° |
| 2026-04-29 00:46 | 42.90460 | -81.38375 | 2651 ft | 107 kts | 279° |
| 2026-04-29 00:46 | 42.90581 | -81.39347 | 2813 ft | 104 kts | 279° |
| 2026-04-29 00:46 | 42.90693 | -81.40309 | 2971 ft | 102 kts | 277° |
| 2026-04-29 00:47 | 42.90422 | -81.41179 | 3001 ft | 115 kts | 214° |
| 2026-04-29 00:47 | 42.89596 | -81.41132 | 3010 ft | 135 kts | 149° |
| 2026-04-29 00:47 | 42.89137 | -81.40015 | 3010 ft | 144 kts | 91° |
| 2026-04-29 00:47 | 42.89250 | -81.38644 | 3008 ft | 148 kts | 82° |
| 2026-04-29 00:48 | 42.89392 | -81.37232 | 3006 ft | 152 kts | 82° |
| 2026-04-29 00:48 | 42.89460 | -81.35778 | 3006 ft | 152 kts | 103° |
| 2026-04-29 00:48 | 42.89128 | -81.34418 | 3007 ft | 151 kts | 111° |
| 2026-04-29 00:48 | 42.88783 | -81.33077 | 3005 ft | 152 kts | 111° |
| 2026-04-29 00:49 | 42.88434 | -81.31721 | 3004 ft | 152 kts | 111° |
| 2026-04-29 00:49 | 42.88082 | -81.30360 | 3003 ft | 153 kts | 111° |
| 2026-04-29 00:49 | 42.87726 | -81.28991 | 3004 ft | 154 kts | 111° |
| 2026-04-29 00:49 | 42.87363 | -81.27592 | 2998 ft | 149 kts | 111° |
| 2026-04-29 00:50 | 42.87016 | -81.26237 | 2999 ft | 158 kts | 111° |
| 2026-04-29 00:50 | 42.86644 | -81.24793 | 3006 ft | 164 kts | 111° |
| 2026-04-29 00:50 | 42.86257 | -81.23310 | 3005 ft | 168 kts | 111° |
| 2026-04-29 00:50 | 42.85864 | -81.21801 | 3002 ft | 170 kts | 111° |
| 2026-04-29 00:51 | 42.85510 | -81.20389 | 2970 ft | 137 kts | 111° |
| 2026-04-29 00:51 | 42.85240 | -81.19262 | 2765 ft | 129 kts | 110° |
| 2026-04-29 00:51 | 42.84945 | -81.18012 | 2894 ft | 145 kts | 111° |
| 2026-04-29 00:51 | 42.84609 | -81.16659 | 3007 ft | 157 kts | 111° |
| 2026-04-29 00:52 | 42.84240 | -81.15202 | 3014 ft | 168 kts | 111° |
| 2026-04-29 00:52 | 42.83842 | -81.13666 | 3012 ft | 175 kts | 111° |
| 2026-04-29 00:52 | 42.83426 | -81.12078 | 3013 ft | 180 kts | 111° |
| 2026-04-29 00:52 | 42.82755 | -81.10673 | 3002 ft | 172 kts | 134° |
| 2026-04-29 00:53 | 42.82013 | -81.09457 | 3023 ft | 175 kts | 117° |
| 2026-04-29 00:53 | 42.81965 | -81.07805 | 2999 ft | 178 kts | 64° |
| 2026-04-29 00:53 | 42.82652 | -81.06408 | 3010 ft | 179 kts | 50° |
| 2026-04-29 00:53 | 42.83403 | -81.05048 | 3013 ft | 180 kts | 51° |
| 2026-04-29 00:54 | 42.84154 | -81.03665 | 3003 ft | 183 kts | 51° |
| 2026-04-29 00:54 | 42.84910 | -81.02274 | 3009 ft | 182 kts | 51° |
| 2026-04-29 00:54 | 42.85656 | -81.00888 | 3005 ft | 183 kts | 51° |
| 2026-04-29 00:54 | 42.86609 | -80.99827 | 2996 ft | 176 kts | 17° |
| 2026-04-29 00:55 | 42.87773 | -80.99362 | 3004 ft | 174 kts | 11° |
| 2026-04-29 00:55 | 42.88947 | -80.98933 | 3002 ft | 173 kts | 7° |
| 2026-04-29 00:55 | 42.90065 | -80.99152 | 2993 ft | 154 kts | 327° |
| 2026-04-29 00:55 | 42.90870 | -80.99985 | 2984 ft | 139 kts | 316° |
| 2026-04-29 00:56 | 42.91580 | -81.00822 | 2988 ft | 131 kts | 315° |
| 2026-04-29 00:56 | 42.92252 | -81.01627 | 2988 ft | 126 kts | 315° |
| 2026-04-29 00:56 | 42.92887 | -81.02386 | 2988 ft | 115 kts | 316° |
| 2026-04-29 00:56 | 42.93487 | -81.03106 | 2991 ft | 117 kts | 315° |
| 2026-04-29 00:57 | 42.94110 | -81.03853 | 3000 ft | 122 kts | 315° |
| 2026-04-29 00:57 | 42.94764 | -81.04639 | 2962 ft | 130 kts | 315° |
| 2026-04-29 00:57 | 42.95438 | -81.05446 | 2796 ft | 126 kts | 315° |
| 2026-04-29 00:57 | 42.96090 | -81.06227 | 2621 ft | 123 kts | 315° |
| 2026-04-29 00:58 | 42.96730 | -81.06994 | 2452 ft | 122 kts | 315° |
| 2026-04-29 00:58 | 42.97373 | -81.07766 | 2283 ft | 124 kts | 316° |
| 2026-04-29 00:58 | 42.97996 | -81.08509 | 2106 ft | 114 kts | 315° |
| 2026-04-29 00:58 | 42.98567 | -81.09196 | 1947 ft | 105 kts | 315° |
| 2026-04-29 00:59 | 42.99105 | -81.09843 | 1798 ft | 102 kts | 317° |
| 2026-04-29 00:59 | 42.99661 | -81.10519 | 1696 ft | 113 kts | 316° |
| 2026-04-29 00:59 | 43.00263 | -81.11236 | 1797 ft | 117 kts | 317° |
| 2026-04-29 00:59 | 43.00880 | -81.11986 | 1849 ft | 120 kts | 316° |
| 2026-04-29 01:00 | 43.01497 | -81.12732 | 1973 ft | 117 kts | 319° |
| 2026-04-29 01:00 | 43.02135 | -81.13415 | 2114 ft | 116 kts | 319° |
| 2026-04-29 01:00 | 43.02774 | -81.14082 | 2250 ft | 115 kts | 319° |
| 2026-04-29 01:00 | 43.03414 | -81.14746 | 2380 ft | 116 kts | 319° |
| 2026-04-29 01:01 | 43.04051 | -81.15407 | 2508 ft | 115 kts | 319° |
| 2026-04-29 01:01 | 43.04688 | -81.16075 | 2635 ft | 116 kts | 319° |
| 2026-04-29 01:01 | 43.05336 | -81.16752 | 2763 ft | 118 kts | 319° |
| 2026-04-29 01:01 | 43.05990 | -81.17435 | 2894 ft | 118 kts | 318° |
| 2026-04-29 01:02 | 43.06657 | -81.18107 | 2996 ft | 119 kts | 318° |
| 2026-04-29 01:02 | 43.07339 | -81.18803 | 3004 ft | 125 kts | 320° |
| 2026-04-29 01:02 | 43.08053 | -81.19529 | 3009 ft | 129 kts | 319° |
| 2026-04-29 01:02 | 43.08791 | -81.20245 | 3055 ft | 128 kts | 325° |
| 2026-04-29 01:03 | 43.09602 | -81.20708 | 3170 ft | 135 kts | 343° |
| 2026-04-29 01:03 | 43.10612 | -81.20724 | 3090 ft | 160 kts | 4° |
| 2026-04-29 01:03 | 43.11665 | -81.20319 | 3270 ft | 156 kts | 19° |
| 2026-04-29 01:03 | 43.12652 | -81.19697 | 3459 ft | 154 kts | 22° |
| 2026-04-29 01:04 | 43.13635 | -81.19042 | 3211 ft | 176 kts | 18° |
| 2026-04-29 01:04 | 43.14670 | -81.18132 | 3342 ft | 172 kts | 37° |
| 2026-04-29 01:04 | 43.15526 | -81.17075 | 3629 ft | 161 kts | 39° |
| 2026-04-29 01:04 | 43.16351 | -81.16070 | 3869 ft | 157 kts | 37° |
| 2026-04-29 01:05 | 43.17190 | -81.15126 | 4004 ft | 160 kts | 32° |
| 2026-04-29 01:05 | 43.18025 | -81.14251 | 4463 ft | 133 kts | 31° |
| 2026-04-29 01:05 | 43.18714 | -81.13520 | 4870 ft | 129 kts | 34° |
| 2026-04-29 01:05 | 43.19401 | -81.12611 | 4981 ft | 140 kts | 44° |
| 2026-04-29 01:06 | 43.20024 | -81.11552 | 5220 ft | 138 kts | 55° |
| 2026-04-29 01:06 | 43.20457 | -81.10491 | 5648 ft | 124 kts | 58° |
| 2026-04-29 01:06 | 43.20913 | -81.09383 | 5706 ft | 141 kts | 56° |
| 2026-04-29 01:06 | 43.21382 | -81.08194 | 5883 ft | 146 kts | 63° |
| 2026-04-29 01:07 | 43.21689 | -81.06854 | 6039 ft | 149 kts | 73° |
| 2026-04-29 01:07 | 43.21975 | -81.05487 | 6271 ft | 146 kts | 70° |
| 2026-04-29 01:07 | 43.22251 | -81.04161 | 6500 ft | 141 kts | 71° |
| 2026-04-29 01:07 | 43.22507 | -81.02915 | 6779 ft | 132 kts | 72° |
| 2026-04-29 01:08 | 43.22756 | -81.01708 | 6928 ft | 136 kts | 70° |
| 2026-04-29 01:08 | 43.23024 | -81.00420 | 7021 ft | 142 kts | 72° |
| 2026-04-29 01:08 | 43.23301 | -80.99125 | 7183 ft | 140 kts | 70° |
| 2026-04-29 01:08 | 43.23579 | -80.97883 | 7403 ft | 134 kts | 71° |
| 2026-04-29 01:09 | 43.23861 | -80.96589 | 7352 ft | 150 kts | 73° |
| 2026-04-29 01:09 | 43.24103 | -80.95280 | 7648 ft | 135 kts | 76° |
| 2026-04-29 01:09 | 43.24347 | -80.94000 | 7614 ft | 143 kts | 71° |
| 2026-04-29 01:09 | 43.24656 | -80.92753 | 7801 ft | 132 kts | 68° |
| 2026-04-29 01:10 | 43.24985 | -80.91576 | 7865 ft | 134 kts | 64° |
| 2026-04-29 01:10 | 43.25400 | -80.90382 | 7809 ft | 141 kts | 61° |
| 2026-04-29 01:10 | 43.25741 | -80.89115 | 7754 ft | 145 kts | 75° |
| 2026-04-29 01:10 | 43.25975 | -80.87781 | 7831 ft | 137 kts | 76° |
| 2026-04-29 01:11 | 43.26199 | -80.86529 | 7892 ft | 135 kts | 76° |
| 2026-04-29 01:11 | 43.26451 | -80.85313 | 7958 ft | 131 kts | 69° |
| 2026-04-29 01:11 | 43.26744 | -80.84097 | 7945 ft | 136 kts | 72° |
| 2026-04-29 01:11 | 43.26957 | -80.82857 | 8006 ft | 132 kts | 78° |
| 2026-04-29 01:12 | 43.27105 | -80.81605 | 7968 ft | 138 kts | 84° |
| 2026-04-29 01:12 | 43.27250 | -80.80295 | 7972 ft | 139 kts | 84° |
| 2026-04-29 01:12 | 43.27300 | -80.78953 | 7937 ft | 142 kts | 99° |
| 2026-04-29 01:12 | 43.27104 | -80.77588 | 7807 ft | 149 kts | 107° |
| 2026-04-29 01:13 | 43.26804 | -80.76177 | 7574 ft | 156 kts | 134° |
| 2026-04-29 01:13 | 43.25911 | -80.75654 | 7360 ft | 145 kts | 184° |
| 2026-04-29 01:13 | 43.25033 | -80.76053 | 7132 ft | 137 kts | 224° |
| 2026-04-29 01:13 | 43.24324 | -80.76903 | 6987 ft | 135 kts | 228° |
| 2026-04-29 01:14 | 43.23873 | -80.77506 | 6940 ft | 137 kts | 230° |
| 2026-04-29 01:14 | 43.23193 | -80.78490 | 6846 ft | 146 kts | 231° |
| 2026-04-29 01:14 | 43.22393 | -80.79395 | 6874 ft | 149 kts | 213° |
| 2026-04-29 01:14 | 43.21494 | -80.80060 | 6920 ft | 142 kts | 225° |
| 2026-04-29 01:15 | 43.20824 | -80.81017 | 7019 ft | 134 kts | 234° |
| 2026-04-29 01:15 | 43.20197 | -80.81976 | 7054 ft | 136 kts | 232° |
| 2026-04-29 01:15 | 43.19552 | -80.82948 | 7041 ft | 141 kts | 231° |
| 2026-04-29 01:15 | 43.18887 | -80.83946 | 7031 ft | 142 kts | 233° |
| 2026-04-29 01:16 | 43.18253 | -80.85014 | 6992 ft | 144 kts | 238° |
| 2026-04-29 01:16 | 43.17714 | -80.86178 | 6820 ft | 139 kts | 246° |
| 2026-04-29 01:16 | 43.17253 | -80.87262 | 6725 ft | 127 kts | 242° |
| 2026-04-29 01:16 | 43.16832 | -80.88299 | 6520 ft | 125 kts | 246° |
| 2026-04-29 01:17 | 43.16417 | -80.89368 | 6307 ft | 127 kts | 244° |
| 2026-04-29 01:17 | 43.16010 | -80.90419 | 6163 ft | 121 kts | 246° |
| 2026-04-29 01:17 | 43.15656 | -80.91439 | 6052 ft | 118 kts | 247° |
| 2026-04-29 01:17 | 43.15253 | -80.92444 | 5835 ft | 122 kts | 239° |
| 2026-04-29 01:18 | 43.14679 | -80.93370 | 5478 ft | 135 kts | 230° |
| 2026-04-29 01:18 | 43.13330 | -80.94982 | 5045 ft | 121 kts | 225° |
| 2026-04-29 01:18 | 43.12700 | -80.95744 | 4739 ft | 120 kts | 226° |
| 2026-04-29 01:19 | 43.12089 | -80.96513 | 4457 ft | 119 kts | 226° |
| 2026-04-29 01:19 | 43.11466 | -80.97264 | 4130 ft | 121 kts | 226° |
| 2026-04-29 01:19 | 43.10829 | -80.98013 | 3816 ft | 122 kts | 225° |
| 2026-04-29 01:19 | 43.10189 | -80.98770 | 3546 ft | 119 kts | 227° |
| 2026-04-29 01:20 | 43.09590 | -80.99513 | 3311 ft | 116 kts | 229° |
| 2026-04-29 01:20 | 43.09040 | -81.00279 | 3112 ft | 112 kts | 232° |
| 2026-04-29 01:20 | 43.08514 | -81.01053 | 2868 ft | 112 kts | 232° |
| 2026-04-29 01:20 | 43.07985 | -81.01828 | 2654 ft | 111 kts | 233° |
| 2026-04-29 01:21 | 43.07478 | -81.02602 | 2449 ft | 108 kts | 233° |
| 2026-04-29 01:21 | 43.06974 | -81.03368 | 2251 ft | 109 kts | 236° |
| 2026-04-29 01:21 | 43.06476 | -81.04210 | 2166 ft | 112 kts | 238° |
| 2026-04-29 01:21 | 43.06036 | -81.05098 | 2102 ft | 111 kts | 242° |
| 2026-04-29 01:22 | 43.05636 | -81.05980 | 2096 ft | 109 kts | 243° |
| 2026-04-29 01:22 | 43.05268 | -81.06930 | 1954 ft | 116 kts | 250° |
| 2026-04-29 01:22 | 43.04970 | -81.07964 | 1852 ft | 116 kts | 254° |
| 2026-04-29 01:22 | 43.04752 | -81.09055 | 1685 ft | 120 kts | 263° |
| 2026-04-29 01:23 | 43.04625 | -81.10209 | 1571 ft | 122 kts | 265° |
| 2026-04-29 01:23 | 43.04517 | -81.11383 | 1393 ft | 128 kts | 266° |
| 2026-04-29 01:23 | 43.04362 | -81.12616 | 1198 ft | 136 kts | 259° |
| 2026-04-29 01:23 | 43.04156 | -81.13826 | 989 ft | 120 kts | 263° |
| 2026-04-29 01:24 | 43.04013 | -81.14862 | 968 ft | 105 kts | 264° |
| 2026-04-29 01:24 | 43.03877 | -81.15967 | 1078 ft | 127 kts | 263° |
| 2026-04-29 01:24 | 43.03715 | -81.17161 | 1309 ft | 130 kts | 261° |
| 2026-04-29 01:24 | 43.03474 | -81.18362 | 1709 ft | 127 kts | 232° |